createdAt,value
2016-03-10T00:01:54.644Z,0
2016-03-10T00:05:06.230Z,0
2016-03-10T00:08:17.384Z,0
2016-03-10T00:11:26.970Z,0
2016-03-10T00:14:38.588Z,0
2016-03-10T00:17:47.940Z,0
2016-03-10T00:20:59.513Z,0
2016-03-10T00:24:09.428Z,0
2016-03-10T00:27:18.607Z,0
2016-03-10T00:30:30.537Z,0
2016-03-10T00:33:40.103Z,0
2016-03-10T00:36:48.986Z,0
2016-03-10T00:39:57.143Z,0
2016-03-10T00:43:05.526Z,0
2016-03-10T00:46:23.035Z,0
2016-03-10T00:49:23.464Z,0
2016-03-10T00:52:34.207Z,0
2016-03-10T00:55:45.746Z,0
2016-03-10T00:58:55.070Z,0
2016-03-10T01:02:06.562Z,0
2016-03-10T01:05:21.742Z,0
2016-03-10T01:08:22.296Z,0
2016-03-10T01:11:30.899Z,0
2016-03-10T01:14:42.532Z,0
2016-03-10T01:17:54.136Z,0
2016-03-10T01:21:05.644Z,0
2016-03-10T01:24:22.793Z,0
2016-03-10T01:27:23.255Z,0
2016-03-10T01:30:35.106Z,0
2016-03-10T01:33:43.599Z,0
2016-03-10T01:36:55.031Z,0
2016-03-10T01:40:06.414Z,0
2016-03-10T01:43:23.516Z,0
2016-03-10T01:46:23.883Z,0
2016-03-10T01:49:35.298Z,0
2016-03-10T01:52:46.681Z,0
2016-03-10T01:55:58.098Z,0
2016-03-10T01:59:06.715Z,0
2016-03-10T02:02:18.191Z,0
2016-03-10T02:05:26.918Z,0
2016-03-10T02:08:38.505Z,0
2016-03-10T02:11:46.169Z,0
2016-03-10T02:14:57.946Z,0
2016-03-10T02:18:15.484Z,0
2016-03-10T02:21:22.118Z,0
2016-03-10T02:24:22.673Z,0
2016-03-10T02:27:34.103Z,0
2016-03-10T02:30:45.752Z,0
2016-03-10T02:33:54.138Z,0
2016-03-10T02:37:05.333Z,0
2016-03-10T02:40:22.997Z,0
2016-03-10T02:43:23.521Z,0
2016-03-10T02:46:35.076Z,0
2016-03-10T02:49:44.068Z,0
2016-03-10T02:52:55.876Z,0
2016-03-10T02:56:04.228Z,0
2016-03-10T02:59:20.189Z,0
2016-03-10T03:02:20.760Z,0
2016-03-10T03:05:32.471Z,0
2016-03-10T03:08:44.104Z,0
2016-03-10T03:11:55.990Z,0
2016-03-10T03:15:07.701Z,0
2016-03-10T03:18:19.084Z,0
2016-03-10T03:21:29.530Z,0
2016-03-10T03:24:41.037Z,0
2016-03-10T03:27:50.515Z,0
2016-03-10T03:31:00.478Z,0
2016-03-10T03:34:17.986Z,0
2016-03-10T03:37:18.510Z,0
2016-03-10T03:40:30.127Z,0
2016-03-10T03:43:41.807Z,0
2016-03-10T03:46:53.362Z,0
2016-03-10T03:50:01.951Z,0
2016-03-10T03:53:16.350Z,0
2016-03-10T03:56:23.030Z,0
2016-03-10T03:59:23.616Z,0
2016-03-10T04:02:35.030Z,0
2016-03-10T04:05:45.867Z,0
2016-03-10T04:08:57.705Z,0
2016-03-10T04:12:15.463Z,0
2016-03-10T04:15:22.096Z,0
2016-03-10T04:18:22.902Z,0
2016-03-10T04:21:31.848Z,0
2016-03-10T04:24:41.527Z,0
2016-03-10T04:27:52.972Z,0
2016-03-10T04:31:01.436Z,0
2016-03-10T04:34:18.461Z,0
2016-03-10T04:37:19.108Z,0
2016-03-10T04:40:31.116Z,0
2016-03-10T04:43:43.390Z,0
2016-03-10T04:46:55.307Z,0
2016-03-10T04:50:07.096Z,0
2016-03-10T04:53:18.637Z,0
2016-03-10T04:56:27.987Z,0
2016-03-10T04:59:39.481Z,0
2016-03-10T05:02:51.144Z,0
2016-03-10T05:06:02.858Z,1
2016-03-10T05:09:20.585Z,1
2016-03-10T05:12:21.172Z,2
2016-03-10T05:15:32.711Z,4
2016-03-10T05:18:41.657Z,5
2016-03-10T05:21:50.805Z,8
2016-03-10T05:25:02.315Z,11
2016-03-10T05:28:19.871Z,18
2016-03-10T05:31:20.411Z,33
2016-03-10T05:34:32.089Z,48
2016-03-10T05:37:41.410Z,67
2016-03-10T05:40:52.027Z,81
2016-03-10T05:44:03.742Z,111
2016-03-10T05:47:21.407Z,108
2016-03-10T05:50:21.946Z,119
2016-03-10T05:53:31.016Z,130
2016-03-10T05:56:40.181Z,146
2016-03-10T05:59:48.298Z,192
2016-03-10T06:02:59.652Z,211
2016-03-10T06:06:16.940Z,244
2016-03-10T06:09:23.636Z,256
2016-03-10T06:12:24.143Z,243
2016-03-10T06:15:32.948Z,245
2016-03-10T06:18:44.456Z,316
2016-03-10T06:21:53.105Z,338
2016-03-10T06:25:02.350Z,376
2016-03-10T06:28:17.436Z,410
2016-03-10T06:31:24.085Z,560
2016-03-10T06:34:24.703Z,621
2016-03-10T06:37:36.242Z,680
2016-03-10T06:40:48.047Z,699
2016-03-10T06:43:59.636Z,773
2016-03-10T06:47:17.441Z,868
2016-03-10T06:50:24.152Z,981
2016-03-10T06:53:24.644Z,1056
2016-03-10T06:56:33.590Z,1021
2016-03-10T06:59:45.145Z,1037
2016-03-10T07:02:53.263Z,1389
2016-03-10T07:06:04.367Z,1517
2016-03-10T07:09:19.047Z,1290
2016-03-10T07:12:19.570Z,1471
2016-03-10T07:15:31.189Z,1775
2016-03-10T07:18:42.946Z,1994
2016-03-10T07:21:51.611Z,2129
2016-03-10T07:25:02.949Z,2854
2016-03-10T07:28:19.082Z,3123
2016-03-10T07:31:19.981Z,2989
2016-03-10T07:34:31.521Z,3303
2016-03-10T07:37:42.715Z,3909
2016-03-10T07:40:52.208Z,4029
2016-03-10T07:44:04.156Z,3581
2016-03-10T07:47:21.722Z,3232
2016-03-10T07:50:21.428Z,2798
2016-03-10T07:53:33.332Z,2483
2016-03-10T07:56:45.083Z,2212
2016-03-10T07:59:54.510Z,2750
2016-03-10T08:03:06.159Z,2129
2016-03-10T08:06:23.682Z,2012
2016-03-10T08:09:24.236Z,2435
2016-03-10T08:12:33.494Z,1874
2016-03-10T08:15:44.909Z,1685
2016-03-10T08:18:56.183Z,1585
2016-03-10T08:22:06.162Z,2042
2016-03-10T08:25:23.732Z,1974
2016-03-10T08:28:24.396Z,1968
2016-03-10T08:31:36.108Z,3147
2016-03-10T08:34:47.522Z,3688
2016-03-10T08:37:58.174Z,3843
2016-03-10T08:41:15.979Z,3721
2016-03-10T08:44:22.534Z,3571
2016-03-10T08:47:23.072Z,4026
2016-03-10T08:50:31.799Z,3627
2016-03-10T08:53:40.886Z,2909
2016-03-10T08:56:52.691Z,3873
2016-03-10T09:00:04.170Z,1188
2016-03-10T09:03:22.412Z,4150
2016-03-10T09:06:22.870Z,4558
2016-03-10T09:09:35.128Z,6238
2016-03-10T09:12:47.214Z,6328
2016-03-10T09:15:59.616Z,4293
2016-03-10T09:19:17.279Z,4107
2016-03-10T09:22:23.990Z,4303
2016-03-10T09:25:24.748Z,3874
2016-03-10T09:28:34.226Z,4627
2016-03-10T09:31:46.062Z,4567
2016-03-10T09:34:57.867Z,4514
2016-03-10T09:38:09.550Z,3578
2016-03-10T09:41:23.324Z,3782
2016-03-10T09:44:32.628Z,3763
2016-03-10T09:47:44.543Z,3388
2016-03-10T09:50:56.524Z,3792
2016-03-10T09:54:08.362Z,4093
2016-03-10T09:57:20.075Z,4294
2016-03-10T10:00:31.708Z,3986
2016-03-10T10:03:43.637Z,4284
2016-03-10T10:06:53.583Z,5149
2016-03-10T10:10:03.188Z,5802
2016-03-10T10:13:21.039Z,4349
2016-03-10T10:16:21.734Z,4790
2016-03-10T10:19:31.649Z,4552
2016-03-10T10:22:42.985Z,3575
2016-03-10T10:25:54.525Z,4139
2016-03-10T10:29:06.036Z,4532
2016-03-10T10:32:24.840Z,4632
2016-03-10T10:35:24.692Z,4345
2016-03-10T10:38:35.341Z,4430
2016-03-10T10:41:44.458Z,3493
2016-03-10T10:44:56.138Z,3244
2016-03-10T10:48:08.055Z,3842
2016-03-10T10:51:19.876Z,3512
2016-03-10T10:54:31.868Z,3232
2016-03-10T10:57:43.564Z,3063
2016-03-10T11:00:55.134Z,2916
2016-03-10T11:04:06.317Z,3663
2016-03-10T11:07:21.841Z,3492
2016-03-10T11:10:22.458Z,3025
2016-03-10T11:13:34.185Z,3405
2016-03-10T11:16:44.958Z,3300
2016-03-10T11:19:56.826Z,3606
2016-03-10T11:23:06.071Z,4020
2016-03-10T11:26:23.532Z,4220
2016-03-10T11:29:24.353Z,4136
2016-03-10T11:32:36.033Z,4891
2016-03-10T11:35:47.619Z,4028
2016-03-10T11:38:59.409Z,3731
2016-03-10T11:42:09.653Z,4554
2016-03-10T11:45:21.443Z,3556
2016-03-10T11:48:31.138Z,3760
2016-03-10T11:51:40.521Z,3284
2016-03-10T11:54:52.390Z,3341
2016-03-10T11:58:00.398Z,3296
2016-03-10T12:01:18.143Z,2975
2016-03-10T12:04:24.947Z,4113
2016-03-10T12:07:25.706Z,5867
2016-03-10T12:10:37.448Z,5690
2016-03-10T12:13:46.861Z,4419
2016-03-10T12:16:56.479Z,5382
2016-03-10T12:20:08.381Z,5318
2016-03-10T12:23:26.155Z,5761
2016-03-10T12:26:26.976Z,4569
2016-03-10T12:29:38.921Z,3390
2016-03-10T12:32:50.773Z,3924
2016-03-10T12:36:00.203Z,3452
2016-03-10T12:39:17.776Z,4151
2016-03-10T12:42:24.550Z,4205
2016-03-10T12:45:25.323Z,3897
2016-03-10T12:48:34.441Z,4751
2016-03-10T12:51:46.183Z,4916
2016-03-10T12:54:57.379Z,5098
2016-03-10T12:58:09.137Z,5194
2016-03-10T13:01:21.351Z,4067
2016-03-10T13:04:33.281Z,3763
2016-03-10T13:07:45.492Z,3712
2016-03-10T13:10:57.547Z,4662
2016-03-10T13:14:07.265Z,5405
2016-03-10T13:17:23.026Z,4973
2016-03-10T13:20:24.237Z,5190
2016-03-10T13:23:36.370Z,4724
2016-03-10T13:26:48.644Z,4646
2016-03-10T13:30:00.136Z,5112
2016-03-10T13:33:17.131Z,4533
2016-03-10T13:36:24.281Z,3917
2016-03-10T13:39:25.444Z,3661
2016-03-10T13:42:37.500Z,3391
2016-03-10T13:45:48.789Z,3299
2016-03-10T13:48:59.124Z,3197
2016-03-10T13:52:17.323Z,4204
2016-03-10T13:55:24.440Z,3808
2016-03-10T13:58:25.589Z,3921
2016-03-10T14:01:37.612Z,3841
2016-03-10T14:04:49.715Z,3728
2016-03-10T14:08:01.594Z,3685
2016-03-10T14:11:19.464Z,3624
2016-03-10T14:14:26.503Z,3747
2016-03-10T14:17:27.651Z,3495
2016-03-10T14:20:37.722Z,3496
2016-03-10T14:23:47.840Z,3504
2016-03-10T14:26:57.832Z,3587
2016-03-10T14:30:08.981Z,3944
2016-03-10T14:33:20.788Z,3948
2016-03-10T14:36:32.860Z,3456
2016-03-10T14:39:44.602Z,3123
2016-03-10T14:42:56.282Z,2330
2016-03-10T14:46:07.977Z,1875
2016-03-10T14:49:25.863Z,2602
2016-03-10T14:52:26.934Z,2113
2016-03-10T14:55:38.800Z,1658
2016-03-10T14:58:50.668Z,1580
2016-03-10T15:02:02.426Z,1544
2016-03-10T15:05:18.438Z,1917
2016-03-10T15:08:25.493Z,1871
2016-03-10T15:11:26.422Z,2020
2016-03-10T15:14:38.476Z,2203
2016-03-10T15:17:48.126Z,2096
2016-03-10T15:20:57.759Z,2198
2016-03-10T15:24:09.720Z,2086
2016-03-10T15:27:21.481Z,1968
2016-03-10T15:30:31.036Z,1982
2016-03-10T15:33:42.966Z,1481
2016-03-10T15:36:54.989Z,1501
2016-03-10T15:40:07.247Z,1337
2016-03-10T15:43:25.227Z,1221
2016-03-10T15:46:25.938Z,1356
2016-03-10T15:49:36.212Z,1275
2016-03-10T15:52:46.282Z,961
2016-03-10T15:55:57.947Z,663
2016-03-10T15:59:09.361Z,809
2016-03-10T16:02:21.025Z,1152
2016-03-10T16:05:30.583Z,1223
2016-03-10T16:08:42.201Z,1102
2016-03-10T16:11:53.334Z,1018
2016-03-10T16:15:04.921Z,899
2016-03-10T16:18:19.444Z,856
2016-03-10T16:21:26.077Z,870
2016-03-10T16:24:26.725Z,818
2016-03-10T16:27:36.002Z,743
2016-03-10T16:30:47.572Z,665
2016-03-10T16:33:57.190Z,628
2016-03-10T16:37:08.745Z,591
2016-03-10T16:40:25.863Z,525
2016-03-10T16:43:26.605Z,463
2016-03-10T16:46:37.019Z,391
2016-03-10T16:49:48.327Z,330
2016-03-10T16:52:59.891Z,272
2016-03-10T16:56:17.555Z,218
2016-03-10T17:02:24.772Z,130
2016-03-10T17:05:33.038Z,93
2016-03-10T17:08:44.481Z,64
2016-03-10T17:11:53.924Z,43
2016-03-10T17:15:05.383Z,26
2016-03-10T17:18:23.000Z,16
2016-03-10T17:21:23.711Z,9
2016-03-10T17:24:33.204Z,5
2016-03-10T17:27:45.136Z,4
2016-03-10T17:30:54.645Z,2
2016-03-10T17:34:05.152Z,1
2016-03-10T17:37:20.801Z,1
2016-03-10T17:40:21.684Z,0
2016-03-10T17:43:33.411Z,1
2016-03-10T17:46:43.563Z,1
2016-03-10T17:49:52.774Z,1
2016-03-10T17:53:04.188Z,1
2016-03-10T17:56:19.992Z,1
2016-03-10T17:59:26.485Z,1
2016-03-10T18:02:26.837Z,1
2016-03-10T18:05:36.971Z,1
2016-03-10T18:08:48.653Z,1
2016-03-10T18:12:00.115Z,1
2016-03-10T18:15:11.201Z,1
2016-03-10T18:18:22.334Z,1
2016-03-10T18:21:33.982Z,1
2016-03-10T18:24:45.276Z,1
2016-03-10T18:27:57.080Z,1
2016-03-10T18:31:06.463Z,1
2016-03-10T18:34:24.190Z,1
2016-03-10T18:37:24.870Z,1
2016-03-10T18:40:36.800Z,1
2016-03-10T18:43:48.341Z,1
2016-03-10T18:46:59.741Z,0
2016-03-10T18:50:10.671Z,0
2016-03-10T18:53:27.851Z,0
2016-03-10T18:56:28.499Z,1
2016-03-10T18:59:40.148Z,1
2016-03-10T19:02:49.174Z,1
2016-03-10T19:06:00.791Z,1
2016-03-10T19:09:09.018Z,1
2016-03-10T19:12:23.980Z,1
2016-03-10T19:15:24.597Z,1
2016-03-10T19:18:36.226Z,1
2016-03-10T19:21:47.144Z,1
2016-03-10T19:24:56.388Z,1
2016-03-10T19:28:07.755Z,1
2016-03-10T19:34:23.037Z,1
2016-03-10T19:37:34.660Z,1
2016-03-10T19:40:46.199Z,1
2016-03-10T19:43:57.647Z,1
2016-03-10T19:47:09.186Z,1
2016-03-10T19:50:24.428Z,1
2016-03-10T19:53:24.952Z,1
2016-03-10T19:56:36.492Z,1
2016-03-10T19:59:44.594Z,1
2016-03-10T20:02:56.074Z,1
2016-03-10T20:06:04.940Z,1
2016-03-10T20:09:22.626Z,1
2016-03-10T20:12:23.070Z,1
2016-03-10T20:15:34.438Z,1
2016-03-10T20:18:42.977Z,1
2016-03-10T20:21:54.676Z,1
2016-03-10T20:25:05.496Z,1
2016-03-10T20:28:23.083Z,1
2016-03-10T20:31:23.622Z,1
2016-03-10T20:34:32.318Z,1
2016-03-10T20:37:42.388Z,1
2016-03-10T20:40:50.162Z,1
2016-03-10T20:44:01.861Z,1
2016-03-10T20:47:13.478Z,1
2016-03-10T20:50:30.564Z,1
2016-03-10T20:53:30.806Z,1
2016-03-10T20:56:41.954Z,1
2016-03-10T20:59:52.213Z,1
2016-03-10T21:03:03.806Z,1
2016-03-10T21:06:21.548Z,1
2016-03-10T21:09:28.447Z,1
2016-03-10T21:12:29.033Z,1
2016-03-10T21:15:40.838Z,1
2016-03-10T21:18:59.130Z,1
2016-03-10T21:21:58.920Z,1
2016-03-10T21:25:08.349Z,1
2016-03-10T21:28:16.904Z,1
2016-03-10T21:31:32.240Z,1
2016-03-10T21:34:33.186Z,1
2016-03-10T21:37:44.178Z,1
2016-03-10T21:40:55.750Z,1
2016-03-10T21:44:06.760Z,1
2016-03-10T21:47:24.363Z,1
2016-03-10T21:50:30.870Z,1
2016-03-10T21:53:31.221Z,1
2016-03-10T21:56:42.073Z,1
2016-03-10T21:59:53.784Z,1
2016-03-10T22:03:04.295Z,1
2016-03-10T22:06:15.459Z,1
2016-03-10T22:09:32.686Z,1
2016-03-10T22:12:33.194Z,1
2016-03-10T22:15:43.849Z,1
2016-03-10T22:18:54.997Z,1
2016-03-10T22:22:03.054Z,1
2016-03-10T22:25:14.093Z,1
2016-03-10T22:28:31.695Z,1
2016-03-10T22:31:32.250Z,1
2016-03-10T22:34:42.711Z,1
2016-03-10T22:37:53.205Z,1
2016-03-10T22:41:04.841Z,1
2016-03-10T22:44:15.894Z,1
2016-03-10T22:47:33.559Z,1
2016-03-10T22:50:40.035Z,1
2016-03-10T22:53:40.340Z,1
2016-03-10T22:56:51.896Z,1
2016-03-10T23:00:03.329Z,1
2016-03-10T23:03:14.743Z,1
2016-03-10T23:06:23.157Z,1
2016-03-10T23:09:36.727Z,1
2016-03-10T23:12:37.158Z,1
2016-03-10T23:15:48.635Z,1
2016-03-10T23:18:59.349Z,1
2016-03-10T23:22:08.200Z,1
2016-03-10T23:25:19.615Z,1
2016-03-10T23:28:37.169Z,1
2016-03-10T23:31:37.600Z,1
2016-03-10T23:34:46.123Z,1
2016-03-10T23:37:57.631Z,1
2016-03-10T23:41:06.033Z,1
2016-03-10T23:44:17.728Z,1
2016-03-10T23:47:34.908Z,1
2016-03-10T23:50:35.494Z,1
2016-03-10T23:53:47.190Z,1
2016-03-10T23:56:55.479Z,1
